KSEP/SEP METAR and TAF weather

Enter ICAO airport designator
Station Type Date Time Source
KSEP METAR 2020/09/22 04:15 UTC NOAA

KSEP 220415Z AUTO 04005KT 2 1/2SM OVC003 19/17 A3012 RMK AO2 T01880173


Station Type Date Time Source
KSEP Decoded METAR 2020/09/22 04:15 UTC NOAA

Stephenville, Clark Field Municipal Airport, TX, United States (KSEP) 32-13N 098-11W 402M
Sep 22, 2020 - 12:15 AM EDT / 2020.09.22 0415 UTC
Wind: from the NE (040 degrees) at 6 MPH (5 KT):0
Visibility: 2 1/2 mile(s):0
Sky conditions: overcast
Temperature: 65.8 F (18.8 C)
Dew Point: 63.1 F (17.3 C)
Relative Humidity: 90%
Pressure (altimeter): 30.12 in. Hg (1019 hPa)
ob: KSEP 220415Z AUTO 04005KT 2 1/2SM OVC003 19/17 A3012 RMK AO2 T01880173
cycle: 4

Station Type Date Time Source
KSEP TAF UTC NOAA

Error!

Example: see airport list